Bad Axe, Michigan
Current Conditions -  °F | °C
As of 11:55 AM on Friday 28 Nov 2014 (Local Time) from KBAX Reporting Station
Broken Clouds Broken Clouds  
Wind Chill: 15°   Ceiling: 2800
Heat Index: 22°   Visibility: 10mi
Dew Point: 13°   Wind: 6mph
Humidity: 67%   Direction: 230°SW
Pressure: 30.25"   Gusts: NA
Location:  43.8°N, 83°W
Report Text: KBAX 281655Z AUTO 23005KT 10SM BKN028 BKN090 M05/M10 A3025 RMK AO2 T10531105
Loading
Personal Weather Stations






























Interactive Weather Map New forecast layout! Learn more

10-Day Weather Forecast

Advertisements
Track Severe Weather on mobile